createdAt,value
2018-04-23T00:01:22.380Z,18.20
2018-04-23T00:03:49.456Z,19.90
2018-04-23T00:06:15.694Z,20.33
2018-04-23T00:08:42.013Z,20.30
2018-04-23T00:11:08.244Z,19.77
2018-04-23T00:13:34.419Z,21.23
2018-04-23T00:16:00.659Z,20.70
2018-04-23T00:18:26.900Z,20.50
2018-04-23T00:20:53.859Z,20.30
2018-04-23T00:23:20.112Z,19.90
2018-04-23T00:25:47.088Z,19.63
2018-04-23T00:28:14.400Z,20.63
2018-04-23T00:30:40.636Z,18.57
2018-04-23T00:33:06.871Z,20.60
2018-04-23T00:35:33.176Z,25.70
2018-04-23T00:37:59.370Z,35.47
2018-04-23T00:40:25.560Z,42.27
2018-04-23T00:42:51.836Z,38.03
2018-04-23T00:45:18.040Z,41.37
2018-04-23T00:47:44.261Z,43.13
2018-04-23T00:50:10.604Z,40.90
2018-04-23T00:52:36.857Z,38.73
2018-04-23T00:55:03.078Z,45.67
2018-04-23T00:57:30.627Z,44.10
2018-04-23T00:59:56.858Z,44.57
2018-04-23T01:02:23.112Z,42.47
2018-04-23T01:04:49.300Z,47.20
2018-04-23T01:07:15.529Z,48.10
2018-04-23T01:09:43.569Z,50.63
2018-04-23T01:12:09.829Z,47.53
2018-04-23T01:14:36.176Z,51.87
2018-04-23T01:17:02.407Z,47.63
2018-04-23T01:19:28.711Z,50.73
2018-04-23T01:21:55.696Z,49.80
2018-04-23T01:24:21.933Z,47.20
2018-04-23T01:26:48.168Z,47.33
2018-04-23T01:29:14.383Z,47.87
2018-04-23T01:31:41.380Z,52.17
2018-04-23T01:34:07.626Z,48.50
2018-04-23T01:36:33.859Z,49.60
2018-04-23T01:39:00.093Z,47.90
2018-04-23T01:41:26.360Z,57.30
2018-04-23T01:43:52.588Z,50.60
2018-04-23T01:46:18.817Z,52.17
2018-04-23T01:48:45.051Z,48.97
2018-04-23T01:51:11.251Z,52.63
2018-04-23T01:53:38.235Z,56.33
2018-04-23T01:56:05.183Z,56.77
2018-04-23T01:58:32.139Z,57.03
2018-04-23T02:00:58.353Z,62.73
2018-04-23T02:03:24.575Z,60.83
2018-04-23T02:05:50.803Z,55.70
2018-04-23T02:08:17.031Z,62.97
2018-04-23T02:10:43.263Z,58.43
2018-04-23T02:13:10.283Z,62.40
2018-04-23T02:15:37.237Z,62.67
2018-04-23T02:18:03.480Z,56.73
2018-04-23T02:20:29.698Z,56.87
2018-04-23T02:22:56.432Z,55.90
2018-04-23T02:25:23.359Z,57.50
2018-04-23T02:27:50.707Z,54.87
2018-04-23T02:30:16.765Z,49.00
2018-04-23T02:32:42.986Z,44.07
2018-04-23T02:35:09.349Z,43.80
2018-04-23T02:37:36.563Z,44.83
2018-04-23T02:40:02.794Z,43.03
2018-04-23T02:42:29.043Z,46.50
2018-04-23T02:44:55.302Z,56.90
2018-04-23T02:47:21.519Z,45.03
2018-04-23T02:49:47.756Z,46.17
2018-04-23T02:52:14.799Z,50.40
2018-04-23T02:54:41.034Z,44.87
2018-04-23T02:57:07.247Z,46.43
2018-04-23T02:59:34.234Z,48.37
2018-04-23T03:02:00.506Z,41.00
2018-04-23T03:04:27.614Z,40.43
2018-04-23T03:06:53.854Z,48.83
2018-04-23T03:09:20.803Z,43.20
2018-04-23T03:11:47.767Z,48.30
2018-04-23T03:14:13.805Z,40.77
2018-04-23T03:16:40.415Z,42.40
2018-04-23T03:19:06.456Z,39.77
2018-04-23T03:21:32.704Z,37.80
2018-04-23T03:23:58.913Z,38.87
2018-04-23T03:26:25.139Z,38.27
2018-04-23T03:28:51.500Z,41.47
2018-04-23T03:31:18.507Z,38.67
2018-04-23T03:33:44.713Z,40.40
2018-04-23T03:36:12.063Z,37.93
2018-04-23T03:38:38.287Z,35.97
2018-04-23T03:41:04.519Z,35.30
2018-04-23T03:43:30.772Z,36.93
2018-04-23T03:45:57.012Z,40.47
2018-04-23T03:48:23.248Z,35.43
2018-04-23T03:50:49.505Z,40.03
2018-04-23T03:53:15.757Z,35.00
2018-04-23T03:55:42.769Z,36.83
2018-04-23T03:58:09.728Z,33.00
2018-04-23T04:00:35.917Z,31.80
2018-04-23T04:03:02.148Z,31.40
2018-04-23T04:05:28.381Z,30.90
2018-04-23T04:07:54.589Z,35.10
2018-04-23T04:10:20.839Z,32.90
2018-04-23T04:13:00.209Z,30.33
2018-04-23T04:15:38.860Z,31.10
2018-04-23T04:21:10.211Z,34.30
2018-04-23T04:23:37.000Z,33.93
2018-04-23T04:26:03.034Z,32.97
2018-04-23T04:28:29.094Z,31.97
2018-04-23T04:30:55.893Z,26.60
2018-04-23T04:33:21.915Z,25.23
2018-04-23T04:35:47.935Z,24.47
2018-04-23T04:38:14.744Z,29.07
2018-04-23T04:40:40.786Z,31.17
2018-04-23T04:43:07.549Z,27.97
2018-04-23T04:45:33.611Z,27.37
2018-04-23T04:47:59.610Z,24.73
2018-04-23T04:50:25.649Z,23.17
2018-04-23T04:52:51.715Z,23.50
2018-04-23T04:55:18.488Z,26.80
2018-04-23T04:57:44.764Z,24.83
2018-04-23T05:00:10.786Z,29.37
2018-04-23T05:02:36.840Z,25.20
2018-04-23T05:05:02.949Z,25.30
2018-04-23T05:07:29.018Z,26.07
2018-04-23T05:09:55.065Z,28.53
2018-04-23T05:12:21.091Z,22.37
2018-04-23T05:14:47.124Z,25.57
2018-04-23T05:17:13.166Z,22.97
2018-04-23T05:19:39.597Z,24.93
2018-04-23T05:22:05.642Z,22.70
2018-04-23T05:24:31.674Z,20.93
2018-04-23T05:26:57.780Z,24.27
2018-04-23T05:29:23.820Z,21.60
2018-04-23T05:31:49.867Z,22.47
2018-04-23T05:34:16.088Z,20.70
2018-04-23T05:36:42.793Z,19.60
2018-04-23T05:39:09.009Z,21.30
2018-04-23T05:41:35.240Z,17.57
2018-04-23T05:44:01.513Z,18.10
2018-04-23T05:46:28.545Z,20.00
2018-04-23T05:48:54.768Z,20.10
2018-04-23T05:51:21.100Z,21.60
2018-04-23T05:53:48.080Z,21.80
2018-04-23T05:56:14.332Z,17.47
2018-04-23T05:58:40.619Z,19.93
2018-04-23T06:01:06.897Z,18.30
2018-04-23T06:03:33.156Z,18.57
2018-04-23T06:05:59.425Z,18.73
2018-04-23T06:08:25.672Z,19.27
2018-04-23T06:10:52.201Z,18.57
2018-04-23T06:13:18.468Z,14.60
2018-04-23T06:15:45.520Z,14.83
2018-04-23T06:18:11.753Z,18.93
2018-04-23T06:20:38.318Z,16.43
2018-04-23T06:23:04.541Z,21.40
2018-04-23T06:25:30.768Z,19.60
2018-04-23T06:27:57.044Z,16.33
2018-04-23T06:30:24.031Z,18.30
2018-04-23T06:32:51.055Z,16.17
2018-04-23T06:35:17.758Z,18.20
2018-04-23T06:37:43.987Z,18.37
2018-04-23T06:40:10.396Z,17.07
2018-04-23T06:42:36.617Z,20.70
2018-04-23T06:45:02.905Z,19.37
2018-04-23T06:47:29.135Z,15.77
2018-04-23T06:49:55.387Z,16.00
2018-04-23T06:52:22.245Z,17.67
2018-04-23T06:54:48.583Z,14.33
2018-04-23T06:57:14.845Z,15.63
2018-04-23T06:59:41.092Z,15.40
2018-04-23T07:02:07.326Z,17.50
2018-04-23T07:04:34.287Z,17.43
2018-04-23T07:07:01.305Z,16.37
2018-04-23T07:09:27.646Z,16.30
2018-04-23T07:11:54.623Z,13.20
2018-04-23T07:14:21.599Z,14.03
2018-04-23T07:16:48.847Z,17.70
2018-04-23T07:19:15.809Z,13.63
2018-04-23T07:21:42.452Z,12.93
2018-04-23T07:24:08.527Z,17.30
2018-04-23T07:26:35.451Z,14.40
2018-04-23T07:29:01.507Z,13.13
2018-04-23T07:31:27.548Z,17.00
2018-04-23T07:33:53.791Z,15.53
2018-04-23T07:36:20.040Z,15.00
2018-04-23T07:38:46.195Z,13.17
2018-04-23T07:41:12.425Z,15.90
2018-04-23T07:43:38.680Z,14.20
2018-04-23T07:46:04.909Z,13.93
2018-04-23T07:48:31.154Z,14.03
2018-04-23T07:50:57.387Z,14.17
2018-04-23T07:53:23.640Z,11.47
2018-04-23T07:55:49.873Z,12.13
2018-04-23T07:58:17.314Z,12.23
2018-04-23T08:00:43.633Z,13.50
2018-04-23T08:03:10.619Z,14.27
2018-04-23T08:05:36.840Z,11.70
2018-04-23T08:08:03.105Z,9.70
2018-04-23T08:10:30.104Z,9.87
2018-04-23T08:12:56.328Z,9.87
2018-04-23T08:15:24.865Z,9.70
2018-04-23T08:17:51.854Z,8.77
2018-04-23T08:20:17.915Z,9.07
2018-04-23T08:22:44.143Z,9.60
2018-04-23T08:25:10.363Z,13.43
2018-04-23T08:27:36.936Z,8.40
2018-04-23T08:30:03.167Z,11.57
2018-04-23T08:32:30.767Z,7.63
2018-04-23T08:34:56.996Z,8.77
2018-04-23T08:37:23.264Z,13.20
2018-04-23T08:39:49.495Z,10.17
2018-04-23T08:42:15.726Z,9.60
2018-04-23T08:44:41.969Z,9.60
2018-04-23T08:47:08.183Z,8.73
2018-04-23T08:49:37.406Z,9.70
2018-04-23T08:52:03.657Z,9.67
2018-04-23T08:54:29.859Z,10.17
2018-04-23T08:56:56.088Z,14.60
2018-04-23T08:59:22.299Z,12.03
2018-04-23T09:01:48.532Z,10.03
2018-04-23T09:04:14.788Z,14.13
2018-04-23T09:06:44.239Z,13.27
2018-04-23T09:09:11.257Z,9.40
2018-04-23T09:11:37.491Z,12.57
2018-04-23T09:14:03.703Z,14.10
2018-04-23T09:16:30.656Z,9.57
2018-04-23T09:18:57.690Z,8.37
2018-04-23T09:21:26.370Z,10.20
2018-04-23T09:23:54.078Z,9.60
2018-04-23T09:26:20.105Z,10.97
2018-04-23T09:28:46.328Z,14.80
2018-04-23T09:31:12.593Z,13.03
2018-04-23T09:33:38.841Z,9.93
2018-04-23T09:36:05.830Z,10.67
2018-04-23T09:38:31.941Z,14.50
2018-04-23T09:41:01.953Z,14.13
2018-04-23T09:43:28.212Z,11.07
2018-04-23T09:45:54.453Z,10.10
2018-04-23T09:48:20.688Z,10.00
2018-04-23T09:50:46.900Z,9.83
2018-04-23T09:53:13.866Z,11.10
2018-04-23T09:55:40.104Z,11.83
2018-04-23T09:58:07.740Z,10.20
2018-04-23T10:00:33.964Z,11.07
2018-04-23T10:03:07.067Z,10.00
2018-04-23T10:05:33.293Z,9.37
2018-04-23T10:07:59.580Z,11.83
2018-04-23T10:10:31.086Z,9.50
2018-04-23T10:12:57.296Z,12.60
2018-04-23T10:15:24.287Z,8.80
2018-04-23T10:17:50.512Z,9.10
2018-04-23T10:20:16.744Z,8.70
2018-04-23T10:22:43.708Z,7.23
2018-04-23T10:25:10.777Z,7.70
2018-04-23T10:27:38.116Z,6.07
2018-04-23T10:30:05.104Z,6.67
2018-04-23T10:32:31.337Z,7.07
2018-04-23T10:34:57.605Z,8.47
2018-04-23T10:37:23.841Z,9.50
2018-04-23T10:39:50.097Z,9.10
2018-04-23T10:42:16.337Z,8.17
2018-04-23T10:44:45.956Z,7.03
2018-04-23T10:47:12.196Z,7.60
2018-04-23T10:49:38.404Z,9.77
2018-04-23T10:52:04.642Z,9.93
2018-04-23T10:54:30.892Z,8.43
2018-04-23T10:56:57.225Z,9.23
2018-04-23T10:59:23.484Z,9.13
2018-04-23T11:01:54.437Z,9.07
2018-04-23T11:04:20.722Z,9.70
2018-04-23T11:06:46.943Z,9.23
2018-04-23T11:09:13.177Z,8.90
2018-04-23T11:11:39.389Z,9.23
2018-04-23T11:14:05.618Z,9.07
2018-04-23T11:16:31.829Z,8.80
2018-04-23T11:19:01.653Z,9.07
2018-04-23T11:21:27.959Z,7.60
2018-04-23T11:23:54.249Z,9.40
2018-04-23T11:26:20.720Z,8.10
2018-04-23T11:28:46.976Z,7.90
2018-04-23T11:31:13.975Z,7.03
2018-04-23T11:33:40.281Z,8.53
2018-04-23T11:36:10.750Z,7.83
2018-04-23T11:38:36.988Z,7.93
2018-04-23T11:41:03.254Z,9.20
2018-04-23T11:43:29.550Z,9.00
2018-04-23T11:45:55.809Z,8.70
2018-04-23T11:48:22.038Z,9.60
2018-04-23T11:50:49.020Z,9.67
2018-04-23T11:53:17.867Z,10.97
2018-04-23T11:55:44.091Z,9.60
2018-04-23T11:58:10.391Z,10.33
2018-04-23T12:00:36.667Z,10.30
2018-04-23T12:03:02.972Z,11.30
2018-04-23T12:05:29.310Z,16.10
2018-04-23T12:07:55.517Z,8.87
2018-04-23T12:10:21.786Z,9.53
2018-04-23T12:12:51.852Z,10.20
2018-04-23T12:15:18.099Z,9.87
2018-04-23T12:17:44.324Z,8.80
2018-04-23T12:20:10.644Z,9.50
2018-04-23T12:22:37.607Z,9.20
2018-04-23T12:25:03.841Z,8.43
2018-04-23T12:27:30.090Z,8.37
2018-04-23T12:29:57.072Z,8.43
2018-04-23T12:32:28.029Z,8.40
2018-04-23T12:34:54.995Z,7.70
2018-04-23T12:37:21.969Z,8.30
2018-04-23T12:39:48.220Z,9.00
2018-04-23T12:42:14.495Z,8.87
2018-04-23T12:44:41.523Z,9.00
2018-04-23T12:47:07.728Z,7.70
2018-04-23T12:49:33.986Z,9.90
2018-04-23T12:52:02.757Z,7.90
2018-04-23T12:54:29.748Z,8.47
2018-04-23T12:56:56.024Z,8.40
2018-04-23T12:59:22.287Z,9.10
2018-04-23T13:01:48.540Z,9.73
2018-04-23T13:04:15.512Z,9.07
2018-04-23T13:06:41.803Z,10.23
2018-04-23T13:09:09.802Z,8.17
2018-04-23T13:11:36.026Z,8.50
2018-04-23T13:14:02.276Z,7.07
2018-04-23T13:16:28.533Z,8.70
2018-04-23T13:18:54.751Z,10.30
2018-04-23T13:21:21.064Z,11.00
2018-04-23T13:23:48.024Z,9.63
2018-04-23T13:26:16.877Z,11.07
2018-04-23T13:28:43.109Z,10.07
2018-04-23T13:31:09.336Z,10.30
2018-04-23T13:33:35.622Z,11.03
2018-04-23T13:36:01.881Z,9.97
2018-04-23T13:38:28.909Z,10.00
2018-04-23T13:40:56.009Z,11.07
2018-04-23T13:43:22.232Z,9.30
2018-04-23T13:45:48.460Z,9.80
2018-04-23T13:48:14.667Z,9.67
2018-04-23T13:50:40.915Z,11.73
2018-04-23T13:53:09.830Z,11.60
2018-04-23T13:55:36.259Z,11.20
2018-04-23T13:58:02.532Z,10.67
2018-04-23T14:00:29.720Z,12.37
2018-04-23T14:02:56.723Z,10.30
2018-04-23T14:05:23.009Z,11.40
2018-04-23T14:07:51.459Z,11.27
2018-04-23T14:10:17.758Z,10.60
2018-04-23T14:12:44.028Z,9.57
2018-04-23T14:15:11.069Z,9.03
2018-04-23T14:17:37.420Z,10.47
2018-04-23T14:20:03.697Z,9.90
2018-04-23T14:22:30.061Z,9.20
2018-04-23T14:24:59.747Z,8.77
2018-04-23T14:27:27.066Z,8.40
2018-04-23T14:29:53.830Z,8.13
2018-04-23T14:32:20.812Z,9.87
2018-04-23T14:34:47.066Z,12.10
2018-04-23T14:37:13.310Z,10.10
2018-04-23T14:39:39.559Z,10.37
2018-04-23T14:42:05.832Z,10.50
2018-04-23T14:44:32.072Z,12.10
2018-04-23T14:46:59.199Z,11.43
2018-04-23T14:49:25.520Z,9.50
2018-04-23T14:51:51.927Z,9.27
2018-04-23T14:54:18.182Z,10.30
2018-04-23T14:56:44.436Z,11.67
2018-04-23T14:59:10.671Z,11.17
2018-04-23T15:01:37.085Z,11.13
2018-04-23T15:04:03.434Z,13.27
2018-04-23T15:06:29.740Z,12.00
2018-04-23T15:08:56.330Z,11.43
2018-04-23T15:11:22.596Z,14.57
2018-04-23T15:13:48.892Z,13.50
2018-04-23T15:16:15.126Z,14.00
2018-04-23T15:18:41.383Z,13.23
2018-04-23T15:21:07.654Z,14.57
2018-04-23T15:23:35.380Z,13.90
2018-04-23T15:26:01.637Z,14.27
2018-04-23T15:28:27.908Z,13.90
2018-04-23T15:30:54.157Z,15.17
2018-04-23T15:33:20.553Z,17.50
2018-04-23T15:35:46.808Z,18.30
2018-04-23T15:38:13.102Z,18.90
2018-04-23T15:40:39.424Z,19.97
2018-04-23T15:43:05.694Z,19.30
2018-04-23T15:45:32.696Z,20.90
2018-04-23T15:47:58.977Z,20.33
2018-04-23T15:50:26.030Z,21.33
2018-04-23T15:52:52.417Z,22.00
2018-04-23T15:55:18.889Z,22.20
2018-04-23T15:57:45.138Z,21.83
2018-04-23T16:00:11.424Z,23.07
2018-04-23T16:02:37.684Z,23.17
2018-04-23T16:05:03.971Z,21.90
2018-04-23T16:07:30.213Z,22.53
2018-04-23T16:09:57.334Z,21.43
2018-04-23T16:12:23.660Z,21.63
2018-04-23T16:14:51.663Z,20.47
2018-04-23T16:17:19.187Z,21.87
2018-04-23T16:19:45.503Z,21.07
2018-04-23T16:22:12.315Z,20.73
2018-04-23T16:24:38.721Z,19.47
2018-04-23T16:27:04.945Z,20.10
2018-04-23T16:29:31.217Z,19.10
2018-04-23T16:31:58.274Z,23.13
2018-04-23T16:34:25.889Z,18.33
2018-04-23T16:36:52.131Z,19.77
2018-04-23T16:39:18.390Z,19.03
2018-04-23T16:41:44.632Z,19.17
2018-04-23T16:44:10.896Z,18.17
2018-04-23T16:46:37.140Z,17.40
2018-04-23T16:49:07.561Z,16.80
2018-04-23T16:51:33.812Z,17.80
2018-04-23T16:54:00.797Z,18.60
2018-04-23T16:56:27.813Z,15.73
2018-04-23T16:58:54.876Z,17.80
2018-04-23T17:01:21.140Z,16.23
2018-04-23T17:03:47.444Z,17.73
2018-04-23T17:06:14.511Z,16.70
2018-04-23T17:08:40.752Z,19.80
2018-04-23T17:11:08.669Z,16.60
2018-04-23T17:13:34.964Z,18.77
2018-04-23T17:16:01.207Z,17.10
2018-04-23T17:18:28.296Z,17.60
2018-04-23T17:20:54.675Z,17.50
2018-04-23T17:23:20.932Z,17.60
2018-04-23T17:25:47.193Z,14.87
2018-04-23T17:28:13.426Z,16.70
2018-04-23T17:30:40.460Z,16.40
2018-04-23T17:33:06.678Z,15.77
2018-04-23T17:35:32.963Z,16.67
2018-04-23T17:37:59.929Z,18.03
2018-04-23T17:40:26.182Z,16.83
2018-04-23T17:42:52.406Z,17.87
2018-04-23T17:45:18.735Z,16.40
2018-04-23T17:47:45.036Z,19.50
2018-04-23T17:50:11.376Z,16.83
2018-04-23T17:52:37.602Z,16.27
2018-04-23T17:55:04.316Z,17.70
2018-04-23T17:57:31.317Z,17.30
2018-04-23T17:59:57.596Z,16.13
2018-04-23T18:02:23.830Z,15.47
2018-04-23T18:04:50.067Z,15.80
2018-04-23T18:07:16.283Z,15.20
2018-04-23T18:09:42.512Z,15.97
2018-04-23T18:12:08.762Z,15.80
2018-04-23T18:14:35.004Z,15.13
2018-04-23T18:17:01.260Z,15.13
2018-04-23T18:19:27.511Z,14.83
2018-04-23T18:21:53.757Z,15.23
2018-04-23T18:24:20.739Z,14.90
2018-04-23T18:26:46.977Z,14.67
2018-04-23T18:29:13.256Z,14.00
2018-04-23T18:31:40.728Z,14.00
2018-04-23T18:34:06.979Z,13.13
2018-04-23T18:36:33.186Z,12.97
2018-04-23T18:38:59.484Z,13.17
2018-04-23T18:41:25.719Z,11.93
2018-04-23T18:43:52.117Z,12.10
2018-04-23T18:46:19.175Z,12.30
2018-04-23T18:48:45.411Z,12.53
2018-04-23T18:51:11.724Z,13.07
2018-04-23T18:53:37.942Z,12.10
2018-04-23T18:56:04.187Z,11.80
2018-04-23T18:58:30.413Z,12.63
2018-04-23T19:00:56.684Z,12.27
2018-04-23T19:03:23.008Z,12.30
2018-04-23T19:05:49.302Z,12.23
2018-04-23T19:08:15.448Z,13.53
2018-04-23T19:10:45.048Z,12.23
2018-04-23T19:13:11.455Z,11.43
2018-04-23T19:15:37.704Z,11.03
2018-04-23T19:18:03.936Z,11.77
2018-04-23T19:20:30.182Z,12.10
2018-04-23T19:22:56.388Z,11.20
2018-04-23T19:25:22.639Z,11.40
2018-04-23T19:27:49.652Z,10.60
2018-04-23T19:30:16.733Z,11.40
2018-04-23T19:32:43.759Z,11.30
2018-04-23T19:35:09.978Z,12.87
2018-04-23T19:37:36.227Z,10.37
2018-04-23T19:40:02.452Z,13.73
2018-04-23T19:42:28.660Z,10.37
2018-04-23T19:44:54.916Z,10.07
2018-04-23T19:47:21.128Z,10.10
2018-04-23T19:49:47.360Z,10.30
2018-04-23T19:52:14.339Z,9.87
2018-04-23T19:54:40.610Z,11.07
2018-04-23T19:57:06.880Z,10.33
2018-04-23T19:59:33.968Z,9.93
2018-04-23T20:02:00.997Z,9.50
2018-04-23T20:04:27.221Z,9.07
2018-04-23T20:06:53.537Z,9.50
2018-04-23T20:09:19.680Z,9.23
2018-04-23T20:11:46.669Z,9.10
2018-04-23T20:14:12.968Z,9.70
2018-04-23T20:16:39.921Z,8.83
2018-04-23T20:19:06.211Z,8.20
2018-04-23T20:21:32.461Z,7.10
2018-04-23T20:23:58.853Z,6.93
2018-04-23T20:26:25.149Z,6.70
2018-04-23T20:28:52.193Z,11.10
2018-04-23T20:31:18.441Z,9.20
2018-04-23T20:33:44.700Z,7.10
2018-04-23T20:36:11.683Z,7.73
2018-04-23T20:38:37.919Z,6.43
2018-04-23T20:41:04.928Z,6.17
2018-04-23T20:43:31.177Z,7.70
2018-04-23T20:45:58.251Z,6.70
2018-04-23T20:48:26.731Z,6.37
2018-04-23T20:50:52.993Z,7.40
2018-04-23T20:53:19.440Z,7.47
2018-04-23T20:55:45.681Z,7.00
2018-04-23T20:58:13.417Z,6.43
2018-04-23T21:00:39.646Z,7.40
2018-04-23T21:03:05.910Z,6.53
2018-04-23T21:05:32.399Z,7.10
2018-04-23T21:07:59.438Z,8.00
2018-04-23T21:10:25.712Z,7.27
2018-04-23T21:12:52.679Z,7.30
2018-04-23T21:15:18.843Z,7.70
2018-04-23T21:17:45.064Z,12.90
2018-04-23T21:20:11.296Z,6.90
2018-04-23T21:22:37.537Z,12.70
2018-04-23T21:25:03.788Z,11.10
2018-04-23T21:27:30.787Z,7.67
2018-04-23T21:29:57.034Z,10.10
2018-04-23T21:32:23.281Z,7.57
2018-04-23T21:34:50.377Z,7.20
2018-04-23T21:37:17.347Z,6.93
2018-04-23T21:39:43.664Z,5.90
2018-04-23T21:42:09.916Z,6.50
2018-04-23T21:44:36.167Z,6.27
2018-04-23T21:47:03.140Z,5.93
2018-04-23T21:49:29.379Z,7.53
2018-04-23T21:51:55.616Z,6.53
2018-04-23T21:54:21.855Z,7.97
2018-04-23T21:56:48.097Z,7.83
2018-04-23T21:59:14.328Z,6.50
2018-04-23T22:01:40.565Z,5.77
2018-04-23T22:04:06.832Z,6.03
2018-04-23T22:06:33.124Z,7.23
2018-04-23T22:08:59.392Z,8.13
2018-04-23T22:11:26.494Z,6.67
2018-04-23T22:13:52.715Z,7.27
2018-04-23T22:16:18.965Z,6.90
2018-04-23T22:18:45.156Z,7.03
2018-04-23T22:21:12.119Z,7.17
2018-04-23T22:23:39.076Z,6.63
2018-04-23T22:26:05.311Z,7.17
2018-04-23T22:28:32.264Z,6.80
2018-04-23T22:30:58.478Z,7.73
2018-04-23T22:33:24.723Z,7.00
2018-04-23T22:35:50.952Z,6.73
2018-04-23T22:38:17.155Z,10.53
2018-04-23T22:40:43.379Z,6.70
2018-04-23T22:43:10.336Z,7.20
2018-04-23T22:45:36.721Z,8.10
2018-04-23T22:48:02.975Z,7.80
2018-04-23T22:50:29.250Z,9.10
2018-04-23T22:52:55.479Z,10.77
2018-04-23T22:55:22.030Z,14.17
2018-04-23T22:57:49.081Z,11.73
2018-04-23T23:00:15.384Z,14.90
2018-04-23T23:02:41.612Z,12.43
2018-04-23T23:05:07.819Z,12.90
2018-04-23T23:07:34.061Z,12.73
2018-04-23T23:10:00.267Z,14.23
2018-04-23T23:12:26.545Z,17.40
2018-04-23T23:14:53.522Z,13.33
2018-04-23T23:17:19.816Z,20.77
2018-04-23T23:19:46.095Z,15.80
2018-04-23T23:22:13.054Z,17.47
2018-04-23T23:24:39.286Z,17.93
2018-04-23T23:27:05.535Z,16.40
2018-04-23T23:29:32.513Z,20.13
2018-04-23T23:31:58.745Z,22.60
2018-04-23T23:34:24.974Z,24.53
2018-04-23T23:36:54.312Z,23.47
2018-04-23T23:39:20.536Z,23.53
2018-04-23T23:41:46.776Z,22.07
2018-04-23T23:44:13.048Z,23.77
2018-04-23T23:46:39.463Z,23.33
2018-04-23T23:49:05.844Z,22.10
2018-04-23T23:51:32.071Z,20.60
2018-04-23T23:53:58.322Z,21.30
2018-04-23T23:56:25.411Z,20.87
2018-04-23T23:58:51.662Z,21.27
